Time;durP1;ratioP1;P1;durP2;ratioP2;P2;SDS_P1;SDS_P2;PMS_P1;PMS_P2;Temp;Humidity;BMP_temperature;BMP_pressure;BME280_temperature;BME280_humidity;BME280_pressure;Samples;Min_cycle;Max_cycle;Signal;HPM_P1;HPM_P2
2023/01/08 00:02:23;;;;;;;6.47;3.15;;;9.40;99.90;;;;;;5054418;28;20032;-55
2023/01/08 00:04:48;;;;;;;6.97;3.60;;;9.30;99.90;;;;;;5054203;28;20068;-53
2023/01/08 00:07:14;;;;;;;5.95;3.22;;;9.40;99.90;;;;;;5053732;28;21217;-53
2023/01/08 00:09:40;;;;;;;6.55;2.97;;;9.40;99.90;;;;;;5054109;28;20047;-53
2023/01/08 00:12:06;;;;;;;6.50;2.90;;;9.40;99.90;;;;;;5053353;28;20044;-54
2023/01/08 00:14:31;;;;;;;5.80;3.03;;;9.40;99.90;;;;;;5054990;28;20425;-54
2023/01/08 00:16:57;;;;;;;5.00;2.78;;;9.40;99.90;;;;;;5054678;28;20040;-54
2023/01/08 00:19:23;;;;;;;7.05;3.17;;;9.40;99.90;;;;;;5054525;28;20044;-54
2023/01/08 00:21:49;;;;;;;7.00;2.65;;;9.40;99.90;;;;;;5054558;28;20531;-54
2023/01/08 00:24:14;;;;;;;5.35;2.70;;;9.50;99.90;;;;;;5055577;28;20044;-54
2023/01/08 00:26:40;;;;;;;6.32;2.88;;;9.40;99.90;;;;;;5054944;28;20047;-54
2023/01/08 00:29:06;;;;;;;6.28;3.00;;;9.40;99.90;;;;;;5055878;28;20359;-54
2023/01/08 00:31:32;;;;;;;7.53;2.70;;;9.50;99.90;;;;;;5054877;28;20127;-54
2023/01/08 00:33:57;;;;;;;5.45;2.35;;;9.50;99.90;;;;;;5053286;28;20339;-53
2023/01/08 00:36:23;;;;;;;5.63;2.97;;;9.50;99.90;;;;;;5054459;28;20036;-54
2023/01/08 00:38:49;;;;;;;7.10;3.47;;;9.50;99.90;;;;;;5054748;28;20041;-54
2023/01/08 00:41:15;;;;;;;9.48;2.88;;;9.20;99.90;;;;;;5053788;28;20135;-54
2023/01/08 00:43:41;;;;;;;4.78;2.42;;;9.40;99.90;;;;;;5053915;28;20474;-56
2023/01/08 00:46:07;;;;;;;7.95;3.30;;;9.30;99.90;;;;;;5053095;28;20042;-55
2023/01/08 00:48:37;;;;;;;6.75;2.75;;;9.30;99.90;;;;;;5053465;28;20043;-54
2023/01/08 00:51:04;;;;;;;5.93;2.63;;;9.30;99.90;;;;;;5053510;28;20078;-54
2023/01/08 00:53:29;;;;;;;5.47;2.60;;;9.40;99.90;;;;;;5052999;28;20409;-51
2023/01/08 00:56:09;;;;;;;5.68;2.67;;;9.30;99.90;;;;;;5053335;28;20047;-54
2023/01/08 00:58:35;;;;;;;5.45;2.85;;;9.30;99.90;;;;;;5052033;28;20130;-53
2023/01/08 01:01:01;;;;;;;7.75;2.70;;;10.00;99.90;;;;;;5052471;28;20443;-53
2023/01/08 01:03:27;;;;;;;6.85;2.90;;;9.40;99.90;;;;;;5053416;28;21031;-55
2023/01/08 01:06:04;;;;;;;5.45;3.10;;;9.30;99.90;;;;;;5052493;28;20049;-55
2023/01/08 01:08:30;;;;;;;5.82;2.70;;;9.20;99.90;;;;;;5052748;28;20101;-54
2023/01/08 01:10:55;;;;;;;7.00;2.72;;;9.20;99.90;;;;;;5052547;28;21149;-54
2023/01/08 01:13:21;;;;;;;5.95;2.55;;;9.30;99.90;;;;;;5053878;28;20032;-55
2023/01/08 01:16:01;;;;;;;5.25;2.28;;;10.80;99.90;;;;;;5052768;28;20043;-55
2023/01/08 01:18:27;;;;;;;6.03;2.30;;;9.20;99.90;;;;;;5049588;28;20051;-54
2023/01/08 01:20:52;;;;;;;5.22;2.05;;;9.50;99.90;;;;;;5053649;28;20462;-55
2023/01/08 01:23:18;;;;;;;6.05;2.15;;;9.40;99.90;;;;;;5053535;28;20135;-54
2023/01/08 01:25:44;;;;;;;6.15;2.40;;;9.30;99.90;;;;;;5052864;28;20135;-55
2023/01/08 01:28:10;;;;;;;5.35;2.20;;;9.30;99.90;;;;;;5052357;28;20139;-53
2023/01/08 01:30:35;;;;;;;7.90;2.75;;;9.30;99.90;;;;;;5051771;28;20044;-54
2023/01/08 01:33:01;;;;;;;6.55;2.50;;;9.30;99.90;;;;;;5051947;28;20041;-56
2023/01/08 01:35:27;;;;;;;5.88;2.33;;;9.20;99.90;;;;;;5052841;28;20032;-54
2023/01/08 01:37:53;;;;;;;6.53;1.85;;;9.20;99.90;;;;;;5052058;28;20094;-55
2023/01/08 01:40:18;;;;;;;5.72;2.30;;;9.20;99.90;;;;;;5054175;28;20036;-54
2023/01/08 01:42:44;;;;;;;6.97;2.50;;;9.10;99.90;;;;;;5053249;28;20044;-54
2023/01/08 01:45:28;;;;;;;4.60;1.70;;;8.90;99.90;;;;;;5053441;28;20052;-55
2023/01/08 01:48:05;;;;;;;5.00;2.33;;;9.10;99.90;;;;;;5053803;28;20097;-55
2023/01/08 01:50:34;;;;;;;6.72;2.30;;;8.90;99.90;;;;;;5053303;28;20060;-55
2023/01/08 01:53:09;;;;;;;6.00;2.25;;;8.90;99.90;;;;;;5053301;28;20072;-54
2023/01/08 01:55:37;;;;;;;8.57;2.45;;;8.90;99.90;;;;;;5052128;28;20436;-59
2023/01/08 01:58:21;;;;;;;5.97;2.83;;;9.70;99.90;;;;;;5051156;28;20868;-54
2023/01/08 02:00:48;;;;;;;8.95;2.75;;;8.90;99.90;;;;;;5053335;28;20113;-55
2023/01/08 02:03:15;;;;;;;4.50;2.22;;;8.90;99.90;;;;;;5052562;28;20044;-55
2023/01/08 02:05:52;;;;;;;7.20;2.45;;;8.90;99.90;;;;;;5051283;28;20098;-55
2023/01/08 02:08:30;;;;;;;9.43;2.30;;;8.80;99.90;;;;;;5052529;28;20028;-55
2023/01/08 02:11:40;;;;;;;7.15;2.40;;;8.80;99.90;;;;;;5051246;28;20040;-54
2023/01/08 02:14:31;;;;;;;11.40;2.80;;;8.70;99.90;;;;;;5036679;28;20079;-53
2023/01/08 02:17:07;;;;;;;7.93;2.50;;;8.60;99.90;;;;;;5050886;28;20045;-55
2023/01/08 02:19:39;;;;;;;7.70;2.20;;;9.20;99.90;;;;;;5049162;28;20279;-54
2023/01/08 02:22:43;;;;;;;7.00;2.35;;;8.60;99.90;;;;;;5051271;28;20552;-53
2023/01/08 02:25:56;;;;;;;8.27;1.80;;;8.70;99.90;;;;;;5051107;28;20506;-56
2023/01/08 02:28:24;;;;;;;12.18;2.22;;;8.60;99.90;;;;;;5013987;28;20057;-54
2023/01/08 02:30:51;;;;;;;7.05;1.73;;;8.60;99.90;;;;;;5051231;28;20136;-53
2023/01/08 02:33:17;;;;;;;8.70;1.98;;;8.50;99.90;;;;;;5050923;28;20285;-53
2023/01/08 02:36:14;;;;;;;12.07;2.22;;;8.40;99.90;;;;;;5052164;28;20487;-55
2023/01/08 02:39:10;;;;;;;11.07;1.80;;;9.20;99.90;;;;;;5051287;28;20127;-55
2023/01/08 02:42:05;;;;;;;14.05;2.63;;;8.30;99.90;;;;;;5051295;28;20041;-55
2023/01/08 02:44:36;;;;;;;6.43;1.60;;;8.30;99.90;;;;;;5051531;28;20644;-53
2023/01/08 02:47:07;;;;;;;14.77;2.90;;;8.10;99.90;;;;;;5050159;28;20049;-55
2023/01/08 02:49:37;;;;;;;15.50;2.03;;;8.20;99.90;;;;;;5050587;28;20036;-55
2023/01/08 02:52:05;;;;;;;14.77;1.77;;;8.10;99.90;;;;;;5050836;28;20086;-55
2023/01/08 02:54:34;;;;;;;12.85;2.55;;;8.70;99.90;;;;;;5052631;28;20048;-54
2023/01/08 02:57:11;;;;;;;11.10;2.47;;;8.10;99.90;;;;;;5052808;28;20047;-55
2023/01/08 02:59:38;;;;;;;13.75;2.67;;;8.10;99.90;;;;;;5052304;28;20051;-54
2023/01/08 03:02:05;;;;;;;9.25;1.67;;;8.10;99.90;;;;;;5051785;28;21328;-55
2023/01/08 03:04:38;;;;;;;13.73;2.28;;;8.20;99.90;;;;;;5053451;28;20516;-54
2023/01/08 03:07:04;;;;;;;12.07;2.58;;;8.10;99.90;;;;;;5052310;28;20037;-54
2023/01/08 03:09:30;;;;;;;11.55;2.00;;;8.00;99.90;;;;;;5052708;28;20036;-55
2023/01/08 03:11:58;;;;;;;13.30;2.22;;;8.00;99.90;;;;;;5051649;28;20036;-55
2023/01/08 03:14:35;;;;;;;11.57;1.90;;;7.90;99.90;;;;;;5052416;28;20077;-55
2023/01/08 03:17:17;;;;;;;17.20;2.13;;;7.70;99.90;;;;;;5050866;28;20639;-54
2023/01/08 03:19:49;;;;;;;11.63;2.17;;;8.00;99.90;;;;;;5050911;28;20320;-55
2023/01/08 03:22:16;;;;;;;11.70;2.03;;;7.60;99.90;;;;;;5050742;28;20048;-55
2023/01/08 03:24:47;;;;;;;9.40;1.85;;;7.60;99.90;;;;;;5052473;28;20045;-55
2023/01/08 03:27:16;;;;;;;11.77;2.70;;;8.00;99.90;;;;;;5054386;28;20250;-55
2023/01/08 03:29:44;;;;;;;8.23;1.85;;;7.60;99.90;;;;;;5052692;28;20577;-55
2023/01/08 03:32:16;;;;;;;7.90;1.60;;;9.30;99.90;;;;;;5054578;28;20059;-55
2023/01/08 03:34:45;;;;;;;10.80;1.90;;;7.30;99.90;;;;;;5055685;28;20102;-55
2023/01/08 03:37:12;;;;;;;12.57;2.10;;;7.70;99.90;;;;;;5054543;28;21088;-55
2023/01/08 03:39:51;;;;;;;11.10;2.22;;;7.50;99.90;;;;;;5054621;28;20451;-55
2023/01/08 03:42:19;;;;;;;12.20;2.30;;;7.40;99.90;;;;;;5053594;28;21132;-55
2023/01/08 03:44:45;;;;;;;10.82;1.75;;;9.70;99.90;;;;;;5055152;28;20703;-55
2023/01/08 03:47:12;;;;;;;15.07;2.35;;;8.00;99.90;;;;;;5052984;28;20043;-55
2023/01/08 03:49:39;;;;;;;15.50;2.50;;;7.70;99.90;;;;;;5053199;28;20040;-59
2023/01/08 03:52:05;;;;;;;8.65;2.10;;;8.10;99.90;;;;;;5054191;28;20063;-55
2023/01/08 03:54:33;;;;;;;12.93;2.85;;;7.40;99.90;;;;;;5055145;28;20306;-53
2023/01/08 03:56:59;;;;;;;13.23;2.22;;;8.60;99.90;;;;;;5055069;28;20056;-55
2023/01/08 03:59:25;;;;;;;17.38;2.20;;;7.50;99.90;;;;;;5054454;28;20041;-54
2023/01/08 04:01:50;;;;;;;11.65;2.40;;;7.50;99.90;;;;;;5054195;28;20036;-54
2023/01/08 04:04:17;;;;;;;11.48;2.38;;;7.50;99.90;;;;;;5051666;28;20041;-53
2023/01/08 04:06:43;;;;;;;8.95;2.20;;;7.50;99.90;;;;;;5054769;28;20040;-54
2023/01/08 04:09:09;;;;;;;9.77;2.08;;;7.70;99.90;;;;;;5054168;28;20032;-53
2023/01/08 04:11:34;;;;;;;10.85;2.30;;;7.60;99.90;;;;;;5054460;28;20492;-54
2023/01/08 04:14:01;;;;;;;8.75;3.00;;;7.50;99.90;;;;;;5054078;28;20045;-55
2023/01/08 04:16:26;;;;;;;8.10;2.30;;;7.80;99.90;;;;;;5054442;28;20442;-54
2023/01/08 04:18:52;;;;;;;9.98;2.42;;;7.40;99.90;;;;;;5053667;28;20093;-54
2023/01/08 04:21:18;;;;;;;9.18;2.15;;;7.40;99.90;;;;;;5053715;28;20071;-55
2023/01/08 04:23:44;;;;;;;11.23;1.98;;;7.20;99.90;;;;;;5054879;28;20109;-55
2023/01/08 04:26:10;;;;;;;6.82;2.53;;;7.50;99.90;;;;;;5055714;28;20351;-54
2023/01/08 04:28:36;;;;;;;9.40;2.20;;;9.40;99.90;;;;;;5055162;28;20033;-55
2023/01/08 04:31:06;;;;;;;7.15;2.30;;;7.30;99.90;;;;;;5054648;28;20048;-55
2023/01/08 04:33:32;;;;;;;6.30;2.08;;;7.30;99.90;;;;;;5054908;28;20076;-52
2023/01/08 04:35:57;;;;;;;8.63;2.90;;;7.40;99.90;;;;;;5055019;28;20067;-53
2023/01/08 04:38:23;;;;;;;10.68;2.70;;;8.80;99.90;;;;;;5054431;28;20125;-55
2023/01/08 04:40:49;;;;;;;10.68;2.22;;;7.80;99.90;;;;;;5054502;28;21156;-55
2023/01/08 04:43:14;;;;;;;9.60;2.70;;;7.30;99.90;;;;;;5054230;28;20052;-55
2023/01/08 04:45:40;;;;;;;11.20;2.33;;;7.60;99.90;;;;;;5055379;28;20469;-54
2023/01/08 04:48:06;;;;;;;7.40;2.83;;;7.60;99.90;;;;;;5052828;28;20055;-55
2023/01/08 04:50:32;;;;;;;7.90;2.47;;;7.50;99.90;;;;;;5053673;28;20064;-53
2023/01/08 04:52:58;;;;;;;6.35;2.67;;;8.30;99.90;;;;;;5053529;28;20178;-55
2023/01/08 04:55:24;;;;;;;11.43;2.88;;;8.70;99.90;;;;;;5053957;28;20040;-54
2023/01/08 04:57:50;;;;;;;5.03;2.08;;;7.80;99.90;;;;;;5053019;28;20036;-54
2023/01/08 05:00:16;;;;;;;5.30;2.50;;;7.40;99.90;;;;;;5051785;28;20132;-53
2023/01/08 05:02:41;;;;;;;12.70;2.88;;;7.30;99.90;;;;;;5053233;28;20044;-53
2023/01/08 05:05:07;;;;;;;8.55;3.03;;;8.00;99.90;;;;;;5054161;28;20131;-55
2023/01/08 05:07:33;;;;;;;6.93;2.83;;;7.40;99.90;;;;;;5052201;28;20040;-54
2023/01/08 05:09:59;;;;;;;9.50;3.08;;;8.30;99.90;;;;;;5052619;28;20409;-54
2023/01/08 05:12:24;;;;;;;14.43;3.40;;;7.60;99.90;;;;;;5053241;28;20363;-55
2023/01/08 05:14:50;;;;;;;8.65;2.83;;;9.50;99.90;;;;;;5052786;28;20579;-55
2023/01/08 05:17:16;;;;;;;11.02;3.58;;;7.50;99.90;;;;;;5052044;28;20052;-54
2023/01/08 05:19:42;;;;;;;8.30;3.33;;;7.30;99.90;;;;;;5051832;28;20474;-55
2023/01/08 05:22:07;;;;;;;7.90;2.90;;;7.50;99.90;;;;;;5053182;28;20052;-54
2023/01/08 05:24:33;;;;;;;7.13;2.85;;;8.60;99.90;;;;;;5052323;28;20047;-54
2023/01/08 05:26:59;;;;;;;9.15;2.95;;;7.50;99.90;;;;;;5052088;28;20051;-52
2023/01/08 05:29:25;;;;;;;7.50;2.75;;;8.40;99.90;;;;;;5053017;28;20064;-54
2023/01/08 05:31:50;;;;;;;11.23;2.53;;;7.60;99.90;;;;;;5051559;28;20040;-55
2023/01/08 05:34:16;;;;;;;7.53;2.50;;;7.50;99.90;;;;;;5053336;28;20068;-52
2023/01/08 05:36:42;;;;;;;7.90;2.40;;;7.70;99.90;;;;;;5053213;28;20404;-54
2023/01/08 05:39:08;;;;;;;8.93;2.90;;;9.10;99.90;;;;;;5053444;28;20049;-55
2023/01/08 05:41:33;;;;;;;6.50;2.33;;;7.60;99.90;;;;;;5053342;28;20501;-55
2023/01/08 05:43:59;;;;;;;7.32;2.72;;;7.90;99.90;;;;;;5049306;28;20444;-54
2023/01/08 05:46:25;;;;;;;6.03;2.33;;;7.70;99.90;;;;;;5050730;28;20040;-55
2023/01/08 05:48:51;;;;;;;8.60;2.40;;;7.80;99.90;;;;;;5052112;28;20116;-55
2023/01/08 05:51:16;;;;;;;7.80;2.10;;;7.70;99.90;;;;;;5051050;28;20138;-55
2023/01/08 05:53:42;;;;;;;6.60;2.50;;;7.70;99.90;;;;;;5053580;28;20398;-55
2023/01/08 05:56:10;;;;;;;6.35;2.35;;;7.50;99.90;;;;;;5053139;28;20095;-55
2023/01/08 05:58:36;;;;;;;12.82;3.65;;;7.60;99.90;;;;;;5053312;28;20049;-54
2023/01/08 06:01:05;;;;;;;9.75;1.80;;;8.90;99.90;;;;;;5052035;28;20083;-55
2023/01/08 06:03:31;;;;;;;7.65;1.88;;;7.70;99.90;;;;;;5051978;28;20047;-55
2023/01/08 06:05:58;;;;;;;8.52;2.15;;;9.10;99.90;;;;;;5052221;28;20052;-54
2023/01/08 06:08:24;;;;;;;7.05;1.65;;;9.50;99.90;;;;;;5051587;28;20101;-55
2023/01/08 06:10:49;;;;;;;10.52;2.47;;;7.70;99.90;;;;;;5051703;28;20048;-55
2023/01/08 06:13:15;;;;;;;8.75;2.05;;;7.90;99.90;;;;;;5052378;28;20040;-54
2023/01/08 06:15:41;;;;;;;8.18;2.15;;;7.70;99.90;;;;;;5051863;28;20647;-54
2023/01/08 06:18:07;;;;;;;9.43;1.77;;;8.10;99.90;;;;;;5051050;28;20068;-55
2023/01/08 06:20:32;;;;;;;6.68;1.60;;;7.90;99.90;;;;;;5051464;28;20036;-55
2023/01/08 06:22:58;;;;;;;6.97;1.70;;;7.50;99.90;;;;;;5052026;28;20067;-54
2023/01/08 06:25:24;;;;;;;9.88;2.60;;;9.30;99.90;;;;;;5051564;28;20060;-54
2023/01/08 06:27:53;;;;;;;6.30;1.30;;;7.60;99.90;;;;;;5051636;28;21138;-55
2023/01/08 06:30:19;;;;;;;5.03;1.65;;;9.60;99.90;;;;;;5050022;28;20049;-55
2023/01/08 06:32:44;;;;;;;6.47;2.00;;;8.60;99.90;;;;;;5050831;28;20040;-55
2023/01/08 06:35:10;;;;;;;6.65;2.03;;;8.00;99.90;;;;;;5053297;28;20127;-54
2023/01/08 06:37:36;;;;;;;12.18;2.80;;;7.90;99.90;;;;;;5049927;28;20044;-54
2023/01/08 06:40:01;;;;;;;11.23;2.90;;;8.30;99.90;;;;;;5050982;28;20256;-54
2023/01/08 06:42:27;;;;;;;9.38;3.17;;;7.50;99.90;;;;;;5052377;28;20036;-55
2023/01/08 06:44:53;;;;;;;7.68;2.70;;;9.40;99.90;;;;;;5051419;28;20090;-55
2023/01/08 06:47:19;;;;;;;8.30;3.60;;;7.50;99.90;;;;;;5050393;28;20052;-54
2023/01/08 06:49:44;;;;;;;9.93;2.58;;;7.50;99.90;;;;;;5050719;28;20055;-54
2023/01/08 06:52:10;;;;;;;7.43;2.80;;;7.30;99.90;;;;;;5050946;28;20052;-55
2023/01/08 06:54:36;;;;;;;11.43;2.90;;;7.30;99.90;;;;;;5049348;28;20036;-55
2023/01/08 06:57:02;;;;;;;6.55;2.90;;;7.40;99.90;;;;;;5051076;28;20056;-53
2023/01/08 06:59:27;;;;;;;9.52;2.80;;;8.00;99.90;;;;;;5053659;28;20043;-55
2023/01/08 07:01:53;;;;;;;8.43;2.83;;;8.10;99.90;;;;;;5054540;28;20105;-55
2023/01/08 07:04:19;;;;;;;9.05;3.47;;;7.10;99.90;;;;;;5055758;28;20032;-54
2023/01/08 07:06:45;;;;;;;8.20;3.15;;;7.30;99.90;;;;;;5056365;28;20048;-55
2023/01/08 07:09:12;;;;;;;10.48;3.05;;;7.10;99.90;;;;;;5056636;28;20041;-55
2023/01/08 07:11:39;;;;;;;7.68;3.10;;;6.90;99.90;;;;;;5056165;28;20048;-55
2023/01/08 07:14:05;;;;;;;7.82;3.22;;;7.10;99.90;;;;;;5057069;28;20093;-55
2023/01/08 07:16:32;;;;;;;11.15;3.45;;;7.00;99.90;;;;;;5056165;28;20036;-54
2023/01/08 07:18:58;;;;;;;9.20;2.78;;;7.00;99.90;;;;;;5054786;28;20044;-56
2023/01/08 07:21:23;;;;;;;7.38;3.40;;;7.00;99.90;;;;;;5054837;28;20051;-55
2023/01/08 07:23:50;;;;;;;6.70;2.70;;;7.90;99.90;;;;;;5056120;28;20090;-54
2023/01/08 07:26:16;;;;;;;8.95;3.20;;;6.90;99.90;;;;;;5056338;28;20148;-55
2023/01/08 07:28:41;;;;;;;9.30;3.20;;;6.90;99.90;;;;;;5052425;28;20056;-57
2023/01/08 07:31:08;;;;;;;9.43;2.90;;;7.90;99.90;;;;;;5056167;28;20063;-55
2023/01/08 07:33:34;;;;;;;10.10;2.80;;;6.80;99.90;;;;;;5056693;28;20048;-54
2023/01/08 07:36:01;;;;;;;9.32;2.90;;;8.70;99.90;;;;;;5056966;28;20045;-55
2023/01/08 07:38:26;;;;;;;11.32;3.47;;;6.90;99.90;;;;;;5054941;28;20044;-55
2023/01/08 07:40:52;;;;;;;11.73;3.65;;;6.80;99.90;;;;;;5054913;28;20043;-55
2023/01/08 07:43:18;;;;;;;12.50;3.35;;;7.00;99.90;;;;;;5054658;28;20084;-55
2023/01/08 07:45:44;;;;;;;7.63;3.08;;;8.80;99.90;;;;;;5055702;28;20138;-55
2023/01/08 07:48:14;;;;;;;13.95;3.28;;;6.90;99.90;;;;;;5054026;28;20619;-54
2023/01/08 07:50:43;;;;;;;8.48;2.45;;;8.20;99.90;;;;;;5054243;28;20072;-55
2023/01/08 07:53:11;;;;;;;10.38;2.72;;;6.80;99.90;;;;;;5054518;28;20056;-55
2023/01/08 07:55:37;;;;;;;12.65;3.60;;;6.80;99.90;;;;;;5054532;28;20106;-55
2023/01/08 07:58:15;;;;;;;10.45;3.50;;;6.70;99.90;;;;;;5054855;28;20044;-54
2023/01/08 08:00:41;;;;;;;12.25;4.28;;;6.80;99.90;;;;;;5054111;28;20044;-56
2023/01/08 08:03:10;;;;;;;11.32;4.20;;;6.80;99.90;;;;;;5053766;28;20642;-55
2023/01/08 08:05:36;;;;;;;9.93;3.78;;;6.70;99.90;;;;;;5054295;28;21049;-55
2023/01/08 08:08:06;;;;;;;14.15;5.43;;;6.80;99.90;;;;;;5054487;28;20051;-56
2023/01/08 08:10:32;;;;;;;13.43;4.10;;;6.80;99.90;;;;;;5053755;28;20052;-55
2023/01/08 08:12:58;;;;;;;9.48;4.20;;;6.70;99.90;;;;;;5052318;28;20079;-55
2023/01/08 08:15:24;;;;;;;11.98;3.55;;;6.60;99.90;;;;;;5053402;28;20075;-55
2023/01/08 08:17:49;;;;;;;12.32;3.83;;;8.30;99.90;;;;;;5053263;28;20040;-55
2023/01/08 08:20:15;;;;;;;11.20;3.13;;;6.60;99.90;;;;;;5053734;28;20044;-57
2023/01/08 08:22:41;;;;;;;9.98;3.40;;;6.60;99.90;;;;;;5051570;28;20044;-55
2023/01/08 08:25:07;;;;;;;7.88;3.20;;;6.60;99.90;;;;;;5054941;28;20044;-55
2023/01/08 08:27:33;;;;;;;11.63;3.70;;;6.70;99.90;;;;;;5053919;28;20045;-55
2023/01/08 08:29:59;;;;;;;10.27;2.70;;;6.80;99.90;;;;;;5053940;28;20044;-54
2023/01/08 08:32:24;;;;;;;13.15;2.55;;;6.80;99.90;;;;;;5053328;28;20131;-51
2023/01/08 08:34:50;;;;;;;10.60;2.55;;;7.10;99.90;;;;;;5054077;28;20052;-56
2023/01/08 08:37:16;;;;;;;9.40;2.70;;;7.30;99.90;;;;;;5053963;28;24887;-52
2023/01/08 08:39:42;;;;;;;12.10;2.58;;;7.20;99.90;;;;;;5054513;28;20044;-48
2023/01/08 08:42:07;;;;;;;11.38;2.90;;;7.50;99.90;;;;;;5053317;28;20516;-52
2023/01/08 08:44:33;;;;;;;12.00;2.72;;;7.80;99.90;;;;;;5054038;28;20123;-50
2023/01/08 08:46:59;;;;;;;9.27;2.20;;;7.90;99.90;;;;;;5053601;28;20044;-48
2023/01/08 08:49:25;;;;;;;8.40;2.40;;;7.80;99.90;;;;;;5051670;28;20044;-51
2023/01/08 08:51:51;;;;;;;9.30;2.20;;;7.80;99.90;;;;;;5052441;28;20052;-49
2023/01/08 08:54:17;;;;;;;9.13;2.28;;;7.90;99.90;;;;;;5052667;28;20040;-51
2023/01/08 08:56:43;;;;;;;9.02;2.10;;;7.60;99.90;;;;;;5053642;28;20091;-52
2023/01/08 08:59:11;;;;;;;7.20;2.50;;;7.50;99.90;;;;;;5053682;28;20283;-52
2023/01/08 09:01:37;;;;;;;6.20;2.03;;;7.70;99.90;;;;;;5052362;28;20047;-51
2023/01/08 09:04:03;;;;;;;6.47;1.92;;;7.80;99.90;;;;;;5051898;28;20646;-52
2023/01/08 09:06:29;;;;;;;11.40;2.65;;;7.80;99.90;;;;;;5053889;28;20040;-50
2023/01/08 09:08:54;;;;;;;6.82;1.92;;;9.60;99.90;;;;;;5053128;28;20041;-50
2023/01/08 09:11:20;;;;;;;9.23;2.13;;;9.00;99.90;;;;;;5052556;28;20093;-53
2023/01/08 09:13:46;;;;;;;9.63;2.30;;;9.40;99.90;;;;;;5051591;28;20465;-50
2023/01/08 09:16:12;;;;;;;7.10;2.10;;;9.50;99.90;;;;;;5052733;28;20051;-51
2023/01/08 09:18:38;;;;;;;9.35;2.22;;;9.60;99.90;;;;;;5051744;28;20045;-51
2023/01/08 09:21:07;;;;;;;7.22;2.05;;;9.90;99.90;;;;;;5052028;28;20516;-53
2023/01/08 09:23:33;;;;;;;8.30;1.83;;;9.90;99.90;;;;;;5051264;28;20742;-50
2023/01/08 09:26:04;;;;;;;6.95;1.80;;;9.90;99.90;;;;;;5053863;28;20337;-52
2023/01/08 09:28:31;;;;;;;9.98;2.00;;;12.00;99.90;;;;;;5051706;28;20055;-52
2023/01/08 09:31:03;;;;;;;9.13;1.92;;;10.10;99.90;;;;;;5052597;28;20044;-51
2023/01/08 09:33:29;;;;;;;9.32;2.00;;;9.80;99.90;;;;;;5052964;28;20036;-51
2023/01/08 09:35:55;;;;;;;10.30;1.75;;;9.90;99.90;;;;;;5052390;28;20136;-51
2023/01/08 09:38:21;;;;;;;7.07;1.73;;;9.90;99.90;;;;;;5052552;28;20090;-52
2023/01/08 09:40:58;;;;;;;7.38;1.85;;;10.00;99.90;;;;;;5053521;28;20094;-51
2023/01/08 09:43:26;;;;;;;9.35;2.42;;;10.30;99.90;;;;;;5052201;28;20070;-52
2023/01/08 09:45:55;;;;;;;9.52;1.70;;;10.20;99.90;;;;;;5053273;28;20040;-51
2023/01/08 09:48:25;;;;;;;10.48;2.08;;;10.10;99.90;;;;;;5052932;28;20040;-51
2023/01/08 09:50:51;;;;;;;7.50;1.80;;;9.70;99.90;;;;;;5052407;28;20040;-51
2023/01/08 09:53:17;;;;;;;8.93;1.55;;;9.40;99.90;;;;;;5050389;28;20501;-51
2023/01/08 09:55:57;;;;;;;8.38;1.60;;;9.30;99.90;;;;;;5051231;28;20225;-49
2023/01/08 09:58:29;;;;;;;12.32;1.95;;;9.00;99.90;;;;;;5052700;28;20041;-51
2023/01/08 10:00:56;;;;;;;9.15;1.90;;;9.20;99.90;;;;;;5052826;28;20052;-51
2023/01/08 10:03:28;;;;;;;7.40;1.70;;;9.30;99.90;;;;;;5050604;28;20044;-51
2023/01/08 10:05:55;;;;;;;6.00;1.50;;;9.70;99.90;;;;;;5051724;28;20048;-52
2023/01/08 10:08:20;;;;;;;6.13;1.33;;;10.20;99.90;;;;;;5050874;28;20132;-53
2023/01/08 10:10:46;;;;;;;7.70;1.90;;;10.40;99.90;;;;;;5052292;28;20041;-51
2023/01/08 10:13:14;;;;;;;6.72;1.25;;;10.60;99.90;;;;;;5051078;28;20040;-48
2023/01/08 10:15:40;;;;;;;12.90;2.53;;;11.00;99.90;;;;;;5051187;28;20113;-52
2023/01/08 10:18:12;;;;;;;10.32;1.83;;;11.10;99.90;;;;;;5050412;28;20444;-51
2023/01/08 10:20:38;;;;;;;10.35;2.10;;;11.10;99.90;;;;;;5050597;28;20102;-56
2023/01/08 10:23:10;;;;;;;12.38;1.88;;;11.30;99.90;;;;;;5051111;28;20083;-51
2023/01/08 10:25:52;;;;;;;11.52;2.50;;;11.00;99.90;;;;;;5051183;28;20051;-47
2023/01/08 10:28:23;;;;;;;10.45;2.88;;;10.60;99.90;;;;;;5052401;28;20071;-50
2023/01/08 10:30:51;;;;;;;8.77;1.67;;;9.90;99.90;;;;;;5052460;28;20440;-49
2023/01/08 10:33:30;;;;;;;6.35;1.55;;;9.60;99.90;;;;;;5050301;28;20059;-50
2023/01/08 10:36:05;;;;;;;9.93;1.77;;;9.40;99.90;;;;;;5052275;28;20098;-48
2023/01/08 10:38:36;;;;;;;11.25;2.00;;;9.30;99.90;;;;;;5051643;28;20032;-49
2023/01/08 10:41:06;;;;;;;11.25;2.13;;;9.00;99.90;;;;;;5052057;28;20857;-53
2023/01/08 10:43:49;;;;;;;10.10;1.67;;;9.00;99.90;;;;;;5051878;28;20044;-48
2023/01/08 10:46:29;;;;;;;10.30;1.77;;;8.90;99.90;;;;;;5052054;28;20039;-50
2023/01/08 10:48:59;;;;;;;10.27;1.80;;;8.90;99.90;;;;;;5051642;28;20068;-49
2023/01/08 10:51:27;;;;;;;9.52;2.03;;;8.80;99.90;;;;;;5051898;28;20032;-50
2023/01/08 10:53:57;;;;;;;12.07;2.15;;;8.80;99.90;;;;;;5051684;28;20083;-51
2023/01/08 10:56:25;;;;;;;13.88;3.00;;;8.90;99.90;;;;;;5052979;28;20032;-51
2023/01/08 10:58:52;;;;;;;10.90;1.67;;;8.80;99.90;;;;;;5053108;28;20059;-51
2023/01/08 11:01:25;;;;;;;11.75;1.90;;;8.80;99.90;;;;;;5051735;28;20037;-48
2023/01/08 11:04:03;;;;;;;12.68;2.00;;;8.70;99.90;;;;;;5053286;28;20463;-50
2023/01/08 11:06:37;;;;;;;13.18;2.10;;;8.80;99.90;;;;;;5053140;28;20508;-48
2023/01/08 11:09:24;;;;;;;10.23;2.20;;;9.50;99.90;;;;;;5052933;28;20521;-51
2023/01/08 11:11:50;;;;;;;11.60;2.38;;;8.60;99.90;;;;;;5053204;28;20072;-50
2023/01/08 11:14:38;;;;;;;14.75;2.22;;;8.70;99.90;;;;;;5052104;28;20064;-49
2023/01/08 11:17:11;;;;;;;13.30;2.08;;;8.50;99.90;;;;;;5051827;28;20838;-49
2023/01/08 11:19:38;;;;;;;15.23;2.63;;;8.60;99.90;;;;;;5052063;28;20056;-49
2023/01/08 11:22:17;;;;;;;9.55;2.10;;;8.60;99.90;;;;;;5051546;28;20084;-50
2023/01/08 11:24:43;;;;;;;12.20;2.25;;;9.40;99.90;;;;;;5051063;28;20056;-51
2023/01/08 11:27:17;;;;;;;15.73;2.10;;;8.90;99.90;;;;;;5050989;28;20303;-51
2023/01/08 11:29:44;;;;;;;11.63;2.42;;;9.10;99.90;;;;;;5052160;28;20714;-47
2023/01/08 11:32:32;;;;;;;11.50;2.08;;;8.90;99.90;;;;;;5050726;28;21088;-49
2023/01/08 11:35:27;;;;;;;10.40;2.35;;;9.10;99.90;;;;;;5050998;28;20120;-48
2023/01/08 11:37:58;;;;;;;11.82;1.95;;;9.10;99.90;;;;;;5051108;28;20052;-51
2023/01/08 11:40:30;;;;;;;12.15;1.73;;;9.10;99.90;;;;;;5050427;28;20444;-50
2023/01/08 11:43:30;;;;;;;16.23;2.67;;;9.20;99.90;;;;;;5050801;28;20052;-50
2023/01/08 11:46:20;;;;;;;11.38;2.65;;;9.00;99.90;;;;;;5053234;28;20052;-52
2023/01/08 11:49:05;;;;;;;13.65;2.22;;;9.00;99.90;;;;;;5054598;28;20532;-51
2023/01/08 11:52:09;;;;;;;11.77;2.70;;;8.80;99.90;;;;;;5054656;28;20152;-46
2023/01/08 11:55:13;;;;;;;15.15;2.28;;;8.90;99.90;;;;;;5044692;28;20048;-50
2023/01/08 11:57:42;;;;;;;13.85;2.85;;;8.90;99.90;;;;;;5053152;28;20473;-51
2023/01/08 12:00:27;;;;;;;12.60;2.45;;;8.90;99.90;;;;;;5054986;28;20614;-50
2023/01/08 12:02:55;;;;;;;13.65;2.47;;;9.40;99.90;;;;;;5054789;28;20072;-51
2023/01/08 12:05:47;;;;;;;15.35;2.90;;;9.10;99.90;;;;;;5054045;28;20543;-50
2023/01/08 12:08:35;;;;;;;7.50;1.77;;;8.90;99.90;;;;;;5054705;28;20040;-50
2023/01/08 12:11:07;;;;;;;11.23;2.50;;;9.00;99.90;;;;;;5053826;28;20101;-49
2023/01/08 12:13:36;;;;;;;11.63;3.30;;;8.90;99.90;;;;;;5056082;28;20060;-48
2023/01/08 12:16:28;;;;;;;12.82;2.15;;;9.00;99.90;;;;;;5055105;28;20049;-51
2023/01/08 12:19:00;;;;;;;15.52;2.72;;;8.90;99.90;;;;;;5055026;28;20048;-50
2023/01/08 12:21:31;;;;;;;13.90;2.03;;;9.10;99.90;;;;;;5055134;28;20097;-50
2023/01/08 12:24:02;;;;;;;15.25;2.63;;;9.00;99.90;;;;;;5055159;28;20453;-51
2023/01/08 12:26:47;;;;;;;15.20;2.83;;;8.90;99.90;;;;;;5054876;28;20442;-49
2023/01/08 12:29:32;;;;;;;13.20;2.70;;;8.80;99.90;;;;;;5055790;28;20242;-51
2023/01/08 12:32:13;;;;;;;13.52;2.42;;;8.80;99.90;;;;;;5055765;28;20408;-50
2023/01/08 12:34:46;;;;;;;10.93;2.75;;;8.80;99.90;;;;;;5055285;28;20447;-50
2023/01/08 12:37:37;;;;;;;12.45;2.47;;;8.90;99.90;;;;;;5055399;28;20032;-51
2023/01/08 12:40:13;;;;;;;13.90;2.77;;;8.90;99.90;;;;;;5054114;28;20855;-51
2023/01/08 12:42:42;;;;;;;9.85;2.85;;;8.80;99.90;;;;;;5054515;28;20278;-50
2023/01/08 12:45:17;;;;;;;10.15;2.72;;;8.80;99.90;;;;;;5053336;28;20327;-48
2023/01/08 12:47:47;;;;;;;13.65;2.30;;;8.80;99.90;;;;;;5052848;28;20067;-51
2023/01/08 12:50:13;;;;;;;11.73;2.45;;;8.80;99.90;;;;;;5054259;28;20423;-48
2023/01/08 12:53:11;;;;;;;15.07;3.42;;;8.90;99.90;;;;;;5052440;28;20052;-50
2023/01/08 12:56:09;;;;;;;17.70;2.72;;;8.80;99.90;;;;;;5051826;28;20076;-49
2023/01/08 12:58:51;;;;;;;15.27;2.58;;;9.00;99.90;;;;;;5053784;28;20098;-52
2023/01/08 13:01:36;;;;;;;8.40;2.42;;;8.90;99.90;;;;;;5053674;28;20393;-49
2023/01/08 13:04:03;;;;;;;13.48;2.50;;;9.00;99.90;;;;;;5052797;28;20041;-51
2023/01/08 13:06:30;;;;;;;11.75;2.80;;;8.90;99.90;;;;;;5053051;28;20135;-51
2023/01/08 13:08:57;;;;;;;12.30;2.38;;;8.80;99.90;;;;;;5053387;28;20538;-52